createdAt,value
2023-11-09T00:00:49.713Z,6.68
2023-11-09T00:03:17.178Z,6.47
2023-11-09T00:05:44.626Z,7.38
2023-11-09T00:08:12.027Z,7.40
2023-11-09T00:10:39.012Z,5.80
2023-11-09T00:13:05.942Z,7.18
2023-11-09T00:15:32.892Z,8.25
2023-11-09T00:18:00.444Z,7.70
2023-11-09T00:20:28.540Z,8.32
2023-11-09T00:22:55.508Z,7.82
2023-11-09T00:25:22.556Z,8.38
2023-11-09T00:27:49.597Z,8.23
2023-11-09T00:30:16.608Z,7.47
2023-11-09T00:32:43.680Z,7.93
2023-11-09T00:35:10.879Z,8.07
2023-11-09T00:37:40.560Z,7.65
2023-11-09T00:40:12.162Z,7.82
2023-11-09T00:42:40.110Z,7.13
2023-11-09T00:45:08.288Z,8.05
2023-11-09T00:47:35.733Z,6.95
2023-11-09T00:50:02.813Z,7.90
2023-11-09T00:52:29.973Z,7.38
2023-11-09T00:54:57.090Z,8.02
2023-11-09T00:57:26.833Z,7.75
2023-11-09T00:59:53.657Z,7.65
2023-11-09T01:02:20.616Z,6.53
2023-11-09T01:04:47.587Z,7.47
2023-11-09T01:07:15.072Z,7.22
2023-11-09T01:09:41.995Z,8.27
2023-11-09T01:12:09.396Z,7.70
2023-11-09T01:14:36.501Z,8.32
2023-11-09T01:17:03.948Z,8.18
2023-11-09T01:19:31.911Z,7.82
2023-11-09T01:21:59.258Z,8.10
2023-11-09T01:24:26.168Z,7.95
2023-11-09T01:26:53.187Z,8.18
2023-11-09T01:29:23.216Z,8.10
2023-11-09T01:31:50.794Z,8.07
2023-11-09T01:34:18.083Z,8.57
2023-11-09T01:36:45.112Z,8.13
2023-11-09T01:39:13.552Z,8.85
2023-11-09T01:41:43.621Z,8.63
2023-11-09T01:44:11.254Z,8.57
2023-11-09T01:46:41.706Z,8.45
2023-11-09T01:49:10.786Z,9.32
2023-11-09T01:51:39.557Z,9.20
2023-11-09T01:54:10.480Z,9.20
2023-11-09T01:56:37.519Z,9.48
2023-11-09T01:59:07.741Z,8.65
2023-11-09T02:01:37.294Z,9.27
2023-11-09T02:04:04.876Z,9.93
2023-11-09T02:06:33.234Z,8.90
2023-11-09T02:09:00.288Z,10.35
2023-11-09T02:11:27.322Z,9.80
2023-11-09T02:13:54.321Z,9.60
2023-11-09T02:16:21.812Z,8.70
2023-11-09T02:18:49.070Z,9.95
2023-11-09T02:21:18.910Z,9.48
2023-11-09T02:23:49.398Z,10.32
2023-11-09T02:26:17.531Z,9.55
2023-11-09T02:28:50.455Z,9.30
2023-11-09T02:31:18.417Z,9.35
2023-11-09T02:33:45.382Z,9.07
2023-11-09T02:36:12.826Z,8.98
2023-11-09T02:38:39.801Z,10.73
2023-11-09T02:41:09.509Z,10.43
2023-11-09T02:43:42.005Z,10.27
2023-11-09T02:48:39.819Z,9.40
2023-11-09T02:51:07.820Z,10.77
2023-11-09T02:53:34.932Z,11.75
2023-11-09T02:56:01.952Z,10.85
2023-11-09T02:58:30.442Z,10.23
2023-11-09T03:00:59.221Z,11.07
2023-11-09T03:03:26.281Z,11.10
2023-11-09T03:05:55.100Z,10.57
2023-11-09T03:08:22.218Z,9.77
2023-11-09T03:10:49.523Z,10.35
2023-11-09T03:13:16.599Z,9.75
2023-11-09T03:15:45.771Z,10.27
2023-11-09T03:18:12.938Z,10.80
2023-11-09T03:20:42.560Z,10.15
2023-11-09T03:23:09.890Z,10.27
2023-11-09T03:25:36.844Z,10.55
2023-11-09T03:28:04.227Z,10.18
2023-11-09T03:30:35.270Z,9.55
2023-11-09T03:33:02.599Z,10.50
2023-11-09T03:35:29.482Z,10.05
2023-11-09T03:37:56.373Z,10.48
2023-11-09T03:40:23.238Z,10.75
2023-11-09T03:42:50.234Z,9.20
2023-11-09T03:45:17.273Z,10.02
2023-11-09T03:47:44.434Z,10.15
2023-11-09T03:50:15.159Z,9.70
2023-11-09T03:52:42.106Z,9.70
2023-11-09T03:55:11.910Z,11.50
2023-11-09T03:57:39.657Z,11.05
2023-11-09T04:00:09.659Z,10.68
2023-11-09T04:02:40.664Z,10.65
2023-11-09T04:05:11.063Z,11.05
2023-11-09T04:07:45.924Z,10.25
2023-11-09T04:10:15.490Z,10.55
2023-11-09T04:12:44.640Z,10.23
2023-11-09T04:15:12.159Z,10.85
2023-11-09T04:17:39.137Z,10.00
2023-11-09T04:20:08.669Z,10.20
2023-11-09T04:22:36.547Z,10.90
2023-11-09T04:25:03.843Z,10.95
2023-11-09T04:27:30.914Z,10.13
2023-11-09T04:29:59.425Z,10.52
2023-11-09T04:32:27.309Z,9.65
2023-11-09T04:34:54.608Z,10.85
2023-11-09T04:37:23.332Z,10.48
2023-11-09T04:39:53.318Z,11.00
2023-11-09T04:42:20.996Z,11.18
2023-11-09T04:44:48.306Z,11.98
2023-11-09T04:47:16.053Z,11.27
2023-11-09T04:49:51.225Z,10.00
2023-11-09T04:52:20.664Z,9.75
2023-11-09T04:54:58.016Z,10.52
2023-11-09T04:57:49.379Z,8.48
2023-11-09T05:00:35.118Z,9.43
2023-11-09T05:03:20.960Z,10.35
2023-11-09T05:06:10.604Z,9.57
2023-11-09T05:08:37.539Z,8.00
2023-11-09T05:11:04.889Z,8.13
2023-11-09T05:13:32.206Z,9.32
2023-11-09T05:15:59.403Z,6.68
2023-11-09T05:18:27.727Z,7.00
2023-11-09T05:20:54.682Z,5.07
2023-11-09T05:23:21.640Z,4.35
2023-11-09T05:25:48.463Z,3.58
2023-11-09T05:28:15.386Z,3.38
2023-11-09T05:30:42.489Z,4.10
2023-11-09T05:33:09.568Z,4.35
2023-11-09T05:35:36.468Z,4.85
2023-11-09T05:38:05.013Z,6.32
2023-11-09T05:40:32.055Z,7.82
2023-11-09T05:43:00.656Z,5.97
2023-11-09T05:45:27.625Z,4.60
2023-11-09T05:47:58.190Z,5.07
2023-11-09T05:50:25.165Z,4.88
2023-11-09T05:52:52.136Z,5.57
2023-11-09T05:55:19.117Z,6.07
2023-11-09T05:57:46.167Z,4.68
2023-11-09T06:00:15.053Z,5.88
2023-11-09T06:02:42.128Z,4.75
2023-11-09T06:05:09.117Z,5.40
2023-11-09T06:07:36.632Z,5.38
2023-11-09T06:10:04.830Z,5.93
2023-11-09T06:12:32.046Z,6.00
2023-11-09T06:14:58.851Z,6.13
2023-11-09T06:17:25.873Z,5.13
2023-11-09T06:19:52.802Z,6.40
2023-11-09T06:22:19.882Z,6.80
2023-11-09T06:24:46.774Z,8.00
2023-11-09T06:27:18.442Z,7.38
2023-11-09T06:29:45.469Z,6.90
2023-11-09T06:32:12.614Z,7.40
2023-11-09T06:34:40.912Z,7.22
2023-11-09T06:37:07.901Z,6.20
2023-11-09T06:39:34.854Z,6.63
2023-11-09T06:42:01.844Z,7.20
2023-11-09T06:44:28.831Z,5.53
2023-11-09T06:46:55.738Z,7.32
2023-11-09T06:49:22.829Z,6.03
2023-11-09T06:51:49.732Z,5.50
2023-11-09T06:54:17.121Z,5.57
2023-11-09T06:56:44.111Z,6.13
2023-11-09T06:59:11.717Z,6.40
2023-11-09T07:01:38.643Z,5.32
2023-11-09T07:04:06.005Z,5.72
2023-11-09T07:06:33.120Z,5.40
2023-11-09T07:09:00.167Z,5.45
2023-11-09T07:11:27.150Z,5.22
2023-11-09T07:13:54.184Z,6.00
2023-11-09T07:16:21.058Z,5.70
2023-11-09T07:18:48.054Z,5.10
2023-11-09T07:21:14.978Z,5.15
2023-11-09T07:23:42.991Z,5.88
2023-11-09T07:26:10.587Z,5.93
2023-11-09T07:28:37.507Z,4.90
2023-11-09T07:31:04.641Z,5.78
2023-11-09T07:33:32.765Z,4.72
2023-11-09T07:36:00.537Z,5.20
2023-11-09T07:38:30.642Z,4.80
2023-11-09T07:40:57.599Z,4.85
2023-11-09T07:43:26.799Z,4.32
2023-11-09T07:45:54.342Z,3.72
2023-11-09T07:48:22.780Z,3.97
2023-11-09T07:50:51.314Z,3.33
2023-11-09T07:53:18.267Z,4.35
2023-11-09T07:55:45.840Z,3.70
2023-11-09T07:58:14.378Z,4.30
2023-11-09T08:00:41.880Z,4.65
2023-11-09T08:03:10.575Z,5.25
2023-11-09T08:05:42.631Z,6.07
2023-11-09T08:08:12.734Z,5.32
2023-11-09T08:10:39.867Z,4.45
2023-11-09T08:13:07.202Z,5.57
2023-11-09T08:15:36.460Z,5.72
2023-11-09T08:18:06.670Z,5.53
2023-11-09T08:20:33.802Z,5.78
2023-11-09T08:23:01.227Z,6.00
2023-11-09T08:25:28.911Z,7.32
2023-11-09T08:27:55.984Z,5.97
2023-11-09T08:30:28.283Z,7.07
2023-11-09T08:32:56.971Z,7.15
2023-11-09T08:35:25.922Z,6.63
2023-11-09T08:37:58.948Z,7.43
2023-11-09T08:40:29.752Z,8.77
2023-11-09T08:42:59.035Z,8.25
2023-11-09T08:45:29.410Z,6.75
2023-11-09T08:47:57.032Z,7.80
2023-11-09T08:50:25.948Z,7.22
2023-11-09T08:52:55.572Z,7.65
2023-11-09T08:55:24.376Z,7.72
2023-11-09T08:57:52.021Z,7.60
2023-11-09T09:00:19.613Z,7.30
2023-11-09T09:02:50.637Z,8.60
2023-11-09T09:05:26.638Z,8.35
2023-11-09T09:07:58.246Z,9.77
2023-11-09T09:10:28.796Z,8.27
2023-11-09T09:13:02.761Z,7.82
2023-11-09T09:15:30.352Z,7.82
2023-11-09T09:17:58.861Z,7.03
2023-11-09T09:20:26.125Z,7.15
2023-11-09T09:22:56.896Z,7.35
2023-11-09T09:25:26.558Z,7.78
2023-11-09T09:27:54.032Z,7.03
2023-11-09T09:30:26.352Z,7.03
2023-11-09T09:32:54.751Z,7.63
2023-11-09T09:35:23.391Z,6.85
2023-11-09T09:37:51.994Z,9.32
2023-11-09T09:40:30.844Z,8.02
2023-11-09T09:43:00.288Z,6.90
2023-11-09T09:45:31.871Z,7.55
2023-11-09T09:48:02.450Z,6.75
2023-11-09T09:50:35.102Z,7.40
2023-11-09T09:55:30.174Z,6.35
2023-11-09T09:57:58.859Z,7.57
2023-11-09T10:00:29.172Z,6.10
2023-11-09T10:02:56.120Z,6.03
2023-11-09T10:05:29.269Z,8.70
2023-11-09T10:08:14.724Z,6.10
2023-11-09T10:10:51.249Z,10.32
2023-11-09T10:13:24.606Z,7.88
2023-11-09T10:15:59.820Z,8.00
2023-11-09T10:18:31.540Z,7.72
2023-11-09T10:21:05.077Z,10.18
2023-11-09T10:23:32.335Z,10.52
2023-11-09T10:26:05.258Z,8.38
2023-11-09T10:28:35.160Z,10.25
2023-11-09T10:31:02.241Z,9.82
2023-11-09T10:33:31.935Z,7.68
2023-11-09T10:36:00.287Z,8.23
2023-11-09T10:38:27.277Z,6.57
2023-11-09T10:41:14.936Z,8.90
2023-11-09T10:43:44.069Z,9.25
2023-11-09T10:46:17.527Z,9.45
2023-11-09T10:48:46.021Z,8.73
2023-11-09T10:51:14.633Z,8.48
2023-11-09T10:53:45.047Z,9.00
2023-11-09T10:56:15.662Z,7.90
2023-11-09T10:58:46.372Z,8.07
2023-11-09T11:01:23.477Z,8.18
2023-11-09T11:03:55.840Z,8.20
2023-11-09T11:06:31.403Z,7.43
2023-11-09T11:09:09.681Z,7.47
2023-11-09T11:11:41.922Z,8.20
2023-11-09T11:14:12.897Z,7.87
2023-11-09T11:17:02.245Z,7.78
2023-11-09T11:20:02.099Z,7.80
2023-11-09T11:22:40.665Z,6.10
2023-11-09T11:25:17.397Z,8.10
2023-11-09T11:28:01.649Z,7.68
2023-11-09T11:30:41.086Z,6.90
2023-11-09T11:33:14.510Z,7.25
2023-11-09T11:35:49.721Z,7.60
2023-11-09T11:38:16.959Z,7.55
2023-11-09T11:40:45.109Z,7.07
2023-11-09T11:43:12.926Z,7.25
2023-11-09T11:45:41.455Z,7.22
2023-11-09T11:48:20.756Z,7.47
2023-11-09T11:50:51.623Z,8.10
2023-11-09T11:53:37.294Z,7.05
2023-11-09T11:56:11.661Z,6.70
2023-11-09T11:59:02.289Z,6.68
2023-11-09T12:01:33.569Z,7.15
2023-11-09T12:04:08.185Z,7.00
2023-11-09T12:06:39.565Z,7.25
2023-11-09T12:09:12.225Z,7.28
2023-11-09T12:11:51.402Z,7.53
2023-11-09T12:14:22.126Z,8.27
2023-11-09T12:16:49.231Z,7.63
2023-11-09T12:19:18.020Z,8.35
2023-11-09T12:21:48.817Z,11.02
2023-11-09T12:24:24.526Z,10.18
2023-11-09T12:27:10.120Z,9.10
2023-11-09T12:29:43.878Z,8.73
2023-11-09T12:32:13.021Z,9.45
2023-11-09T12:34:44.298Z,9.15
2023-11-09T12:37:16.750Z,10.73
2023-11-09T12:39:44.847Z,9.43
2023-11-09T12:42:13.478Z,7.43
2023-11-09T12:44:44.384Z,7.22
2023-11-09T12:47:13.144Z,8.65
2023-11-09T12:49:46.910Z,7.57
2023-11-09T12:52:17.145Z,9.52
2023-11-09T12:54:46.347Z,8.70
2023-11-09T12:57:18.268Z,10.18
2023-11-09T12:59:47.371Z,8.90
2023-11-09T13:02:20.361Z,7.22
2023-11-09T13:04:50.574Z,8.38
2023-11-09T13:07:18.152Z,11.13
2023-11-09T13:09:47.882Z,12.57
2023-11-09T13:12:34.214Z,12.52
2023-11-09T13:15:24.448Z,11.43
2023-11-09T13:17:55.081Z,11.55
2023-11-09T13:20:30.953Z,9.70
2023-11-09T13:23:07.543Z,10.88
2023-11-09T13:25:41.092Z,11.05
2023-11-09T13:28:16.073Z,9.45
2023-11-09T13:30:51.174Z,9.32
2023-11-09T13:33:31.910Z,8.65
2023-11-09T13:36:11.565Z,9.20
2023-11-09T13:39:03.271Z,8.30
2023-11-09T13:41:42.636Z,7.32
2023-11-09T13:44:12.752Z,7.63
2023-11-09T13:46:42.604Z,7.43
2023-11-09T13:49:16.793Z,7.47
2023-11-09T13:52:02.926Z,8.82
2023-11-09T13:54:33.835Z,10.98
2023-11-09T13:57:00.742Z,9.93
2023-11-09T13:59:34.324Z,9.23
2023-11-09T14:02:01.799Z,8.73
2023-11-09T14:04:32.273Z,8.05
2023-11-09T14:07:00.144Z,7.57
2023-11-09T14:09:36.066Z,7.75
2023-11-09T14:12:10.490Z,7.88
2023-11-09T14:14:41.823Z,8.90
2023-11-09T14:17:17.668Z,11.35
2023-11-09T14:19:55.587Z,11.73
2023-11-09T14:22:24.158Z,10.13
2023-11-09T14:24:59.090Z,9.68
2023-11-09T14:27:29.558Z,10.75
2023-11-09T14:29:58.872Z,11.75
2023-11-09T14:32:27.691Z,12.30
2023-11-09T14:34:55.553Z,11.85
2023-11-09T14:37:23.869Z,13.32
2023-11-09T14:40:15.217Z,10.88
2023-11-09T14:42:42.496Z,9.38
2023-11-09T14:45:10.899Z,9.93
2023-11-09T14:47:43.491Z,9.82
2023-11-09T14:52:51.166Z,8.07
2023-11-09T14:55:20.465Z,7.28
2023-11-09T14:57:48.984Z,8.68
2023-11-09T15:00:21.893Z,8.35
2023-11-09T15:02:49.388Z,7.97
2023-11-09T15:05:25.417Z,7.18
2023-11-09T15:07:54.208Z,6.85
2023-11-09T15:10:26.082Z,9.77
2023-11-09T15:12:54.356Z,9.75
2023-11-09T15:15:27.499Z,9.30
2023-11-09T15:18:00.416Z,9.95
2023-11-09T15:20:29.981Z,8.27
2023-11-09T15:22:58.063Z,7.30
2023-11-09T15:25:26.064Z,7.75
2023-11-09T15:27:53.651Z,10.10
2023-11-09T15:30:26.099Z,8.82
2023-11-09T15:32:53.776Z,8.32
2023-11-09T15:35:22.646Z,8.63
2023-11-09T15:37:55.289Z,7.93
2023-11-09T15:41:09.299Z,9.13
2023-11-09T15:43:11.980Z,13.48
2023-11-09T15:45:40.522Z,19.17
2023-11-09T15:48:09.339Z,12.57
2023-11-09T15:50:37.922Z,8.88
2023-11-09T15:53:06.904Z,7.97
2023-11-09T15:55:35.624Z,7.78
2023-11-09T15:58:08.192Z,7.03
2023-11-09T16:00:36.772Z,6.82
2023-11-09T16:03:04.082Z,7.25
2023-11-09T16:05:31.024Z,6.82
2023-11-09T16:08:06.189Z,6.53
2023-11-09T16:10:35.921Z,6.40
2023-11-09T16:13:03.188Z,11.20
2023-11-09T16:15:31.269Z,12.57
2023-11-09T16:17:59.465Z,12.75
2023-11-09T16:20:35.304Z,10.55
2023-11-09T16:23:08.562Z,9.10
2023-11-09T16:25:39.734Z,8.80
2023-11-09T16:28:08.478Z,7.53
2023-11-09T16:30:39.061Z,7.82
2023-11-09T16:33:10.137Z,6.43
2023-11-09T16:35:37.927Z,8.30
2023-11-09T16:38:05.888Z,15.18
2023-11-09T16:40:35.690Z,15.15
2023-11-09T16:43:02.962Z,15.98
2023-11-09T16:45:30.045Z,12.43
2023-11-09T16:47:57.105Z,11.43
2023-11-09T16:50:24.165Z,11.18
2023-11-09T16:52:51.918Z,8.75
2023-11-09T16:55:18.883Z,9.07
2023-11-09T16:57:46.689Z,7.55
2023-11-09T17:00:25.028Z,7.25
2023-11-09T17:02:52.833Z,8.15
2023-11-09T17:05:21.948Z,8.30
2023-11-09T17:07:49.140Z,8.32
2023-11-09T17:10:16.304Z,8.63
2023-11-09T17:12:44.012Z,8.90
2023-11-09T17:15:13.166Z,8.68
2023-11-09T17:17:44.169Z,10.35
2023-11-09T17:20:13.494Z,10.27
2023-11-09T17:22:43.892Z,8.95
2023-11-09T17:25:11.318Z,10.55
2023-11-09T17:27:38.444Z,9.50
2023-11-09T17:30:11.070Z,9.48
2023-11-09T17:32:40.238Z,9.88
2023-11-09T17:35:08.822Z,8.73
2023-11-09T17:37:35.992Z,9.85
2023-11-09T17:40:04.770Z,9.32
2023-11-09T17:42:39.178Z,10.13
2023-11-09T17:45:07.992Z,8.82
2023-11-09T17:47:35.227Z,8.70
2023-11-09T17:50:02.411Z,9.52
2023-11-09T17:52:29.747Z,9.13
2023-11-09T17:54:56.779Z,8.75
2023-11-09T17:57:25.723Z,9.27
2023-11-09T17:59:52.793Z,9.32
2023-11-09T18:02:19.794Z,9.90
2023-11-09T18:04:46.809Z,8.70
2023-11-09T18:07:16.019Z,8.00
2023-11-09T18:09:44.787Z,8.00
2023-11-09T18:12:11.803Z,7.93
2023-11-09T18:14:44.874Z,8.20
2023-11-09T18:17:16.561Z,8.82
2023-11-09T18:19:43.658Z,8.13
2023-11-09T18:22:10.696Z,9.02
2023-11-09T18:24:38.438Z,8.75
2023-11-09T18:27:06.158Z,9.82
2023-11-09T18:29:33.994Z,9.38
2023-11-09T18:32:01.056Z,8.60
2023-11-09T18:34:29.772Z,9.45
2023-11-09T18:36:56.985Z,8.55
2023-11-09T18:39:24.061Z,9.13
2023-11-09T18:41:50.947Z,8.13
2023-11-09T18:44:20.167Z,9.07
2023-11-09T18:46:51.639Z,9.75
2023-11-09T18:51:49.046Z,21.13
2023-11-09T18:54:16.142Z,21.17
2023-11-09T18:56:43.235Z,20.45
2023-11-09T18:59:10.111Z,19.30
2023-11-09T19:01:37.154Z,22.25
2023-11-09T19:06:34.418Z,18.38
2023-11-09T19:09:01.378Z,13.98
2023-11-09T19:11:28.980Z,12.82
2023-11-09T19:13:56.380Z,11.10
2023-11-09T19:16:23.797Z,12.90
2023-11-09T19:18:51.406Z,10.95
2023-11-09T19:23:48.287Z,10.20
2023-11-09T19:26:15.398Z,10.05
2023-11-09T19:28:42.500Z,10.77
2023-11-09T19:31:10.014Z,10.27
2023-11-09T19:33:37.770Z,9.75
2023-11-09T19:36:06.946Z,11.75
2023-11-09T19:38:34.756Z,11.00
2023-11-09T19:41:03.083Z,10.52
2023-11-09T19:43:30.077Z,10.13
2023-11-09T19:45:57.290Z,9.63
2023-11-09T19:48:24.810Z,12.02
2023-11-09T19:50:51.874Z,11.35
2023-11-09T19:53:18.986Z,9.40
2023-11-09T19:55:46.070Z,9.73
2023-11-09T19:58:13.418Z,12.55
2023-11-09T20:00:40.455Z,11.98
2023-11-09T20:03:08.218Z,9.35
2023-11-09T20:05:36.539Z,8.77
2023-11-09T20:08:04.231Z,8.73
2023-11-09T20:10:31.725Z,8.25
2023-11-09T20:12:59.949Z,8.43
2023-11-09T20:15:29.070Z,7.65
2023-11-09T20:17:56.764Z,8.13
2023-11-09T20:20:24.062Z,8.48
2023-11-09T20:22:52.346Z,8.23
2023-11-09T20:25:19.463Z,9.30
2023-11-09T20:27:46.726Z,7.78
2023-11-09T20:30:16.912Z,7.30
2023-11-09T20:32:45.393Z,7.70
2023-11-09T20:35:13.274Z,8.50
2023-11-09T20:37:42.249Z,9.35
2023-11-09T20:40:10.484Z,7.90
2023-11-09T20:42:40.574Z,8.35
2023-11-09T20:45:09.971Z,8.50
2023-11-09T20:47:41.017Z,8.35
2023-11-09T20:50:15.487Z,10.43
2023-11-09T20:52:48.596Z,8.38
2023-11-09T20:55:20.000Z,9.23
2023-11-09T20:57:47.946Z,8.68
2023-11-09T21:00:16.082Z,9.05
2023-11-09T21:02:43.174Z,7.28
2023-11-09T21:05:10.376Z,8.63
2023-11-09T21:07:41.501Z,6.90
2023-11-09T21:10:13.102Z,9.15
2023-11-09T21:12:43.239Z,10.32
2023-11-09T21:15:12.241Z,9.38
2023-11-09T21:17:43.799Z,7.60
2023-11-09T21:20:13.305Z,7.30
2023-11-09T21:22:40.546Z,7.85
2023-11-09T21:25:08.221Z,8.25
2023-11-09T21:27:35.699Z,9.25
2023-11-09T21:30:03.132Z,9.13
2023-11-09T21:32:30.563Z,10.07
2023-11-09T21:34:57.881Z,7.90
2023-11-09T21:37:25.864Z,9.60
2023-11-09T21:39:52.823Z,10.00
2023-11-09T21:42:20.408Z,9.40
2023-11-09T21:44:49.822Z,9.25
2023-11-09T21:47:20.056Z,8.05
2023-11-09T21:49:48.539Z,8.48
2023-11-09T21:52:15.547Z,7.57
2023-11-09T21:54:42.919Z,7.93
2023-11-09T21:57:10.922Z,7.63
2023-11-09T21:59:37.896Z,8.48
2023-11-09T22:02:05.071Z,8.02
2023-11-09T22:04:32.275Z,8.35
2023-11-09T22:06:59.344Z,9.07
2023-11-09T22:09:26.655Z,8.07
2023-11-09T22:11:53.817Z,10.10
2023-11-09T22:14:20.825Z,10.15
2023-11-09T22:16:47.786Z,9.77
2023-11-09T22:19:14.701Z,9.60
2023-11-09T22:21:41.823Z,9.05
2023-11-09T22:24:11.705Z,8.70
2023-11-09T22:26:40.289Z,8.90
2023-11-09T22:29:07.771Z,7.43
2023-11-09T22:31:34.899Z,6.85
2023-11-09T22:34:02.412Z,6.35
2023-11-09T22:36:29.585Z,6.90
2023-11-09T22:38:56.588Z,6.85
2023-11-09T22:41:23.522Z,7.40
2023-11-09T22:43:50.707Z,6.72
2023-11-09T22:46:17.995Z,6.65
2023-11-09T22:48:46.154Z,7.22
2023-11-09T22:51:13.273Z,6.13
2023-11-09T22:53:40.303Z,7.32
2023-11-09T22:56:07.625Z,7.57
2023-11-09T22:58:34.652Z,9.43
2023-11-09T23:01:05.302Z,12.13
2023-11-09T23:03:33.532Z,9.70
2023-11-09T23:06:01.133Z,11.15
2023-11-09T23:08:28.255Z,9.65
2023-11-09T23:10:55.194Z,9.10
2023-11-09T23:13:22.133Z,9.57
2023-11-09T23:15:49.060Z,10.20
2023-11-09T23:18:17.201Z,8.80
2023-11-09T23:20:45.286Z,10.15
2023-11-09T23:23:13.329Z,8.90
2023-11-09T23:25:40.645Z,8.05
2023-11-09T23:28:07.674Z,7.00
2023-11-09T23:30:34.836Z,6.38
2023-11-09T23:33:02.290Z,6.68
2023-11-09T23:35:30.245Z,5.90
2023-11-09T23:37:57.615Z,6.07
2023-11-09T23:40:24.831Z,7.32
2023-11-09T23:42:52.073Z,7.70
2023-11-09T23:45:19.567Z,7.10
2023-11-09T23:47:47.346Z,6.47
2023-11-09T23:50:14.482Z,6.72
2023-11-09T23:52:42.176Z,6.97
2023-11-09T23:55:09.958Z,7.18
2023-11-09T23:57:37.735Z,6.88
